Anaktuvuk Pass Airport Anaktuvuk Pass US
ICAO: PAKP
IATA:
Category: Medium
Scheduled Services:

Elevation: 2102 ft
TransAlt. 18000 ft.

Airport Communications:
AWOS 3:135.75
ANCHORAGE CNTR:124.6
CTAF:122.8
DEADHORSE RDO:122.15

PAKP Zoom In..

Runways:

(A) RW 02 length 4800 ft width 100 ft
---- / hdg 17

(B) RW 20 length 4800 ft width 100 ft
---- / hdg 197

Location; PAKP
Day. 23 / Time. 02.56 Zulu
* Altimeter: 30.14
* Temperature: 23° c. 73.4°f.
* Wind from: 210° Speed 07 kn.
Dewpoint: 10° c.
Visibility: 10 Statute Miles.
Clouds: Broken 6500 ft.
Clouds: Overcast 9000 ft.

PAKP 230256Z AUTO 21007KT 10SM BKN065 OVC090 23/10 A3014 RMK AO2 SLP220 60000 T02280100 56017


Wind From 210°
Speed 07 kn.

 
 
jpsmedia.com for Web Design worldairports.se 2018   terms of use